createdAt,value
2023-01-18T00:04:41.629Z,14.9
2023-01-18T00:09:44.487Z,15.2
2023-01-18T00:14:47.095Z,15.8
2023-01-18T00:19:49.829Z,18
2023-01-18T00:24:52.374Z,17.7
2023-01-18T00:29:54.519Z,20.1
2023-01-18T00:34:56.637Z,17.6
2023-01-18T00:39:58.796Z,17.5
2023-01-18T00:45:01.182Z,17
2023-01-18T00:50:03.188Z,14.5
2023-01-18T00:55:05.550Z,14.1
2023-01-18T01:00:07.945Z,13.3
2023-01-18T01:05:10.196Z,12.5
2023-01-18T01:10:12.395Z,13.8
2023-01-18T01:15:14.449Z,13.9
2023-01-18T01:20:16.565Z,14.4
2023-01-18T01:25:18.707Z,15.8
2023-01-18T01:30:20.832Z,17.5
2023-01-18T01:35:23.065Z,29.1
2023-01-18T01:40:25.240Z,29.3
2023-01-18T01:45:27.506Z,35.5
2023-01-18T01:50:29.604Z,42.9
2023-01-18T01:55:31.950Z,45
2023-01-18T02:00:34.190Z,31.8
2023-01-18T02:05:36.593Z,36.2
2023-01-18T02:10:39.044Z,20.9
2023-01-18T02:15:41.384Z,18.4
2023-01-18T02:20:43.870Z,23.5
2023-01-18T02:25:44.393Z,14
2023-01-18T02:30:46.486Z,11.9
2023-01-18T02:35:49.040Z,14.2
2023-01-18T02:40:51.059Z,10.9
2023-01-18T02:45:53.339Z,14.1
2023-01-18T02:50:55.974Z,13.5
2023-01-18T02:55:58.032Z,13
2023-01-18T03:01:00.708Z,13.1
2023-01-18T03:06:03.145Z,13.4
2023-01-18T03:11:05.456Z,24.2
2023-01-18T03:16:07.821Z,10.5
2023-01-18T03:21:10.683Z,12
2023-01-18T03:26:12.782Z,13.4
2023-01-18T03:31:15.290Z,15.9
2023-01-18T03:36:18.062Z,14.4
2023-01-18T03:41:20.178Z,15.6
2023-01-18T03:46:22.683Z,17.5
2023-01-18T03:51:24.921Z,16.7
2023-01-18T03:56:26.895Z,14.5
2023-01-18T04:01:29.165Z,16.3
2023-01-18T04:06:31.924Z,20.3
2023-01-18T04:11:34.003Z,21.9
2023-01-18T04:16:36.257Z,26.4
2023-01-18T04:21:38.403Z,36.1
2023-01-18T04:26:40.822Z,46
2023-01-18T04:31:43.487Z,42.8
2023-01-18T04:36:45.843Z,46.3
2023-01-18T04:41:48.324Z,43.1
2023-01-18T04:46:51.415Z,46.7
2023-01-18T04:51:53.967Z,51.7
2023-01-18T04:56:56.214Z,47.8
2023-01-18T05:01:58.469Z,63.8
2023-01-18T05:07:00.851Z,20.3
2023-01-18T05:12:02.825Z,8.9
2023-01-18T05:17:04.910Z,16.3
2023-01-18T05:22:07.006Z,43.7
2023-01-18T05:27:09.105Z,73.5
2023-01-18T05:32:11.152Z,87
2023-01-18T05:37:13.451Z,74.7
2023-01-18T05:42:15.533Z,90.7
2023-01-18T05:47:18.011Z,88.5
2023-01-18T05:52:20.364Z,99.8
2023-01-18T05:57:22.896Z,145.8
2023-01-18T06:02:26.034Z,5.2
2023-01-18T06:07:28.586Z,6.3
2023-01-18T06:12:30.797Z,3.8
2023-01-18T06:17:32.946Z,3.8
2023-01-18T06:22:42.178Z,2.9
2023-01-18T06:27:44.610Z,2.7
2023-01-18T06:32:46.853Z,2.3
2023-01-18T06:37:49.093Z,2
2023-01-18T06:42:51.313Z,5.8
2023-01-18T06:47:53.563Z,2.5
2023-01-18T06:52:56.149Z,2.5
2023-01-18T06:57:59.747Z,2.5
2023-01-18T07:03:02.084Z,2.5
2023-01-18T07:08:04.418Z,15.8
2023-01-18T07:13:06.649Z,2.3
2023-01-18T07:18:08.928Z,2.1
2023-01-18T07:23:11.110Z,2.2
2023-01-18T07:28:13.342Z,2.4
2023-01-18T07:33:15.448Z,2.5
2023-01-18T07:38:17.762Z,2.9
2023-01-18T07:43:19.971Z,3.6
2023-01-18T07:48:22.395Z,3.7
2023-01-18T07:53:24.836Z,3.8
2023-01-18T07:58:27.352Z,4.8
2023-01-18T08:03:29.735Z,4.3
2023-01-18T08:08:34.634Z,3.5
2023-01-18T08:13:37.033Z,3.7
2023-01-18T08:18:39.475Z,3.9
2023-01-18T08:23:41.628Z,5.6
2023-01-18T08:28:42.290Z,4.4
2023-01-18T08:33:44.689Z,5.5
2023-01-18T08:38:47.802Z,4.4
2023-01-18T08:43:50.513Z,4
2023-01-18T08:48:52.852Z,3.7
2023-01-18T08:53:54.881Z,3.2
2023-01-18T08:58:57.483Z,2.5
2023-01-18T09:04:00.282Z,2
2023-01-18T09:09:02.925Z,1.7
2023-01-18T09:14:10.947Z,1.9
2023-01-18T09:19:13.487Z,1.6
2023-01-18T09:24:16.294Z,1.4
2023-01-18T09:29:18.829Z,1.4
2023-01-18T09:34:21.353Z,1.3
2023-01-18T09:39:23.978Z,1.4
2023-01-18T09:44:26.401Z,1.4
2023-01-18T09:49:28.718Z,1.4
2023-01-18T09:54:30.824Z,1.5
2023-01-18T09:59:32.869Z,2
2023-01-18T10:04:37.155Z,1.6
2023-01-18T10:09:39.297Z,2.5
2023-01-18T10:14:41.822Z,2.2
2023-01-18T10:19:43.956Z,2.8
2023-01-18T10:24:46.133Z,1.7
2023-01-18T10:29:48.872Z,2
2023-01-18T10:34:51.391Z,2.5
2023-01-18T10:39:53.556Z,2.6
2023-01-18T10:44:55.621Z,2.5
2023-01-18T10:49:58.176Z,2.5
2023-01-18T10:55:00.550Z,1.9
2023-01-18T11:00:02.704Z,3.4
2023-01-18T11:05:04.768Z,3.5
2023-01-18T11:10:06.895Z,2.5
2023-01-18T11:15:09.091Z,1.9
2023-01-18T11:20:11.050Z,1.3
2023-01-18T11:25:13.116Z,0.9
2023-01-18T11:30:15.297Z,0.8
2023-01-18T11:35:17.373Z,0.9
2023-01-18T11:40:19.437Z,0.9
2023-01-18T11:45:23.433Z,0.9
2023-01-18T11:50:25.871Z,1
2023-01-18T11:55:28.458Z,1.5
2023-01-18T12:00:29.004Z,0.8
2023-01-18T12:05:31.061Z,0.8
2023-01-18T12:10:33.068Z,0.7
2023-01-18T12:15:35.075Z,0.8
2023-01-18T12:20:37.037Z,0.9
2023-01-18T12:25:38.968Z,1
2023-01-18T12:30:41.023Z,0.9
2023-01-18T12:35:46.636Z,0.9
2023-01-18T12:40:50.878Z,0.9
2023-01-18T12:45:52.966Z,0.8
2023-01-18T12:50:55.335Z,0.8
2023-01-18T12:55:57.345Z,0.7
2023-01-18T13:00:59.649Z,0.9
2023-01-18T13:06:02.584Z,0.9
2023-01-18T13:11:04.698Z,1
2023-01-18T13:16:10.604Z,0.8
2023-01-18T13:21:13.812Z,0.9
2023-01-18T13:26:16.230Z,0.9
2023-01-18T13:31:18.578Z,0.9
2023-01-18T13:36:22.990Z,0.9
2023-01-18T13:41:26.456Z,1.2
2023-01-18T13:46:29.003Z,1.2
2023-01-18T13:51:31.402Z,1.1
2023-01-18T13:56:33.418Z,1.2
2023-01-18T14:01:35.885Z,1.2
2023-01-18T14:06:38.987Z,1.1
2023-01-18T14:11:41.106Z,1.4
2023-01-18T14:16:43.156Z,1.3
2023-01-18T14:21:45.091Z,1.3
2023-01-18T14:26:47.718Z,1.9
2023-01-18T14:31:49.936Z,2.1
2023-01-18T14:36:51.899Z,2.4
2023-01-18T14:41:54.468Z,2.4
2023-01-18T14:46:56.655Z,2.3
2023-01-18T14:51:59.052Z,2.4
2023-01-18T14:57:01.646Z,2.8
2023-01-18T15:02:04.225Z,3
2023-01-18T15:07:07.193Z,3.3
2023-01-18T15:12:09.474Z,3.2
2023-01-18T15:17:11.707Z,2.9
2023-01-18T15:22:13.748Z,3.7
2023-01-18T15:27:16.134Z,6.9
2023-01-18T15:32:18.629Z,6.4
2023-01-18T15:37:20.840Z,7.8
2023-01-18T15:42:23.281Z,6.9
2023-01-18T15:47:25.424Z,11.8
2023-01-18T15:52:28.065Z,12.4
2023-01-18T15:57:30.113Z,11.8
2023-01-18T16:02:32.777Z,12.5
2023-01-18T16:07:35.294Z,12.8
2023-01-18T16:12:37.509Z,10.2
2023-01-18T16:17:42.363Z,12.6
2023-01-18T16:22:44.412Z,8.3
2023-01-18T16:32:51.269Z,5.9
2023-01-18T16:37:53.232Z,6.7
2023-01-18T16:42:55.230Z,6.1
2023-01-18T16:47:57.968Z,4.9
2023-01-18T16:53:01.592Z,3.4
2023-01-18T16:58:03.661Z,4.4
2023-01-18T17:03:05.957Z,4.6
2023-01-18T17:13:10.646Z,3.1
2023-01-18T17:18:13.283Z,3.2
2023-01-18T17:23:15.553Z,3.7
2023-01-18T17:28:17.600Z,5
2023-01-18T17:33:19.785Z,6.5
2023-01-18T17:43:34.925Z,7.3
2023-01-18T17:48:27.342Z,7.1
2023-01-18T17:53:29.577Z,7.2
2023-01-18T17:58:31.705Z,7.7
2023-01-18T18:03:33.844Z,5.1
2023-01-18T18:08:36.197Z,8.9
2023-01-18T18:13:38.321Z,8.3
2023-01-18T18:18:40.773Z,6.4
2023-01-18T18:23:43.339Z,4.8
2023-01-18T18:28:45.760Z,5.6
2023-01-18T18:33:47.873Z,5.5
2023-01-18T18:38:50.020Z,6.3
2023-01-18T18:43:52.425Z,6.3
2023-01-18T18:48:54.554Z,5.8
2023-01-18T18:53:56.889Z,6.6
2023-01-18T18:58:59.249Z,6.7
2023-01-18T19:04:01.594Z,7.3
2023-01-18T19:09:03.740Z,7.5
2023-01-18T19:14:13.652Z,9.8
2023-01-18T19:19:19.534Z,9.8
2023-01-18T19:24:20.574Z,10.2
2023-01-18T19:29:25.417Z,11.3
2023-01-18T19:34:28.726Z,12.2
2023-01-18T19:39:31.589Z,12.4
2023-01-18T19:44:51.904Z,10
2023-01-18T19:49:40.587Z,10.7
2023-01-18T19:54:46.013Z,11.6
2023-01-18T20:00:20.756Z,12.2
2023-01-18T20:04:50.141Z,12.8
2023-01-18T20:09:52.340Z,15.9
2023-01-18T20:14:54.580Z,14.5
2023-01-18T20:19:56.734Z,13.9
2023-01-18T20:24:58.857Z,15.1
2023-01-18T20:30:01.028Z,17.3
2023-01-18T20:35:03.234Z,33
2023-01-18T20:40:08.222Z,19.6
2023-01-18T20:45:11.334Z,19
2023-01-18T20:50:13.583Z,17.8
2023-01-18T20:55:15.933Z,20.5
2023-01-18T21:00:20.239Z,17
2023-01-18T21:05:22.875Z,16
2023-01-18T21:10:25.017Z,12.8
2023-01-18T21:15:27.344Z,12.1
2023-01-18T21:20:29.695Z,12.4
2023-01-18T21:25:31.795Z,22.5
2023-01-18T21:30:33.912Z,10.9
2023-01-18T21:35:36.171Z,10.9
2023-01-18T21:40:38.355Z,10.3
2023-01-18T21:45:40.677Z,10.4
2023-01-18T21:50:43.292Z,12.1
2023-01-18T21:55:45.704Z,11
2023-01-18T22:00:48.457Z,10.3
2023-01-18T22:05:51.139Z,10.3
2023-01-18T22:10:53.481Z,10.6
2023-01-18T22:15:55.825Z,10.7
2023-01-18T22:20:59.278Z,11.1
2023-01-18T22:26:02.395Z,11.1
2023-01-18T22:31:04.769Z,10.6
2023-01-18T22:36:10.016Z,10
2023-01-18T22:41:12.566Z,9.7
2023-01-18T22:46:15.302Z,10.1
2023-01-18T22:51:18.165Z,10
2023-01-18T22:56:20.822Z,9.5
2023-01-18T23:01:23.592Z,8.8
2023-01-18T23:06:27.390Z,8.4
2023-01-18T23:11:30.100Z,7.5
2023-01-18T23:16:32.107Z,7.4
2023-01-18T23:21:34.168Z,6.2
2023-01-18T23:26:36.384Z,5.9
2023-01-18T23:31:38.537Z,5.8
2023-01-18T23:36:40.603Z,5.2
2023-01-18T23:41:42.619Z,5.1
2023-01-18T23:46:44.740Z,5.5
2023-01-18T23:51:47.015Z,6
2023-01-18T23:56:49.193Z,5.7
